• Join FlightAware (Why Join?)
  • Login
  • US Flag 
04:54AM EDT


 

Airport Tracker/Info


-or-


 

Live Flight TrackerFlight Track Log ✈ VH-OIS ✈ 12-Sep-2013 ✈ YNTM - YPJT / JAD

Flight Track Log - Related Links

Times and Time Zones

All times are in EDT time to prevent confusion due to time zone crossing. See the VH-OIS flight status page for this flight to view local times or setup timezone preferences in your user account.

Time Position Orientation Groundspeed Altitude Reporting Facility
EDT Latitude Longitude Course Direction KTS MPH feet Rate Location/Type
12:36AM -31.9540 116.4690 331° Northwest 110 127 2,600  Level FlightAware
12:36AM -31.9420 116.4610 331° Northwest 109 125 2,600 -120 Level FlightAware
12:37AM -31.9320 116.4550 333° Northwest 96 110 2,500 -120 Descending FlightAware
12:37AM -31.9160 116.4440 330° Northwest 96 110 2,500 -120 Level FlightAware
12:37AM -31.9110 116.4380 314° West 89 102 2,400 -240 Descending FlightAware
12:38AM -31.9020 116.4290 320° Northwest 91 105 2,400 60 Level FlightAware
12:38AM -31.8910 116.4180 320° Northwest 89 102 2,500 60 Climbing FlightAware
12:39AM -31.8770 116.3990 311° West 95 109 2,500 60 Level FlightAware
12:40AM -31.8710 116.3900 308° West 93 107 2,600 -180 Climbing FlightAware
12:40AM -31.8660 116.3810 303° West 104 120 2,400 -180 Descending FlightAware
12:40AM -31.8620 116.3680 290° West 96 110 2,500  Climbing FlightAware
12:41AM -31.8670 116.3590 237° Southwest 96 110 2,400  Descending FlightAware
12:41AM -31.8750 116.3530 212° Southwest 94 108 2,500 120 Climbing FlightAware
12:41AM -31.8820 116.3470 216° Southwest 94 108 2,500 -180 Level FlightAware
12:42AM -31.8890 116.3400 220° Southwest 101 116 2,400  Descending FlightAware
12:42AM -31.8970 116.3320 220° Southwest 91 105 2,500 120 Climbing FlightAware
12:42AM -31.9050 116.3250 217° Southwest 103 119 2,500  Level FlightAware
12:43AM -31.9100 116.3190 226° Southwest 104 120 2,500  Level FlightAware
12:43AM -31.9180 116.3120 217° Southwest 97 112 2,500 -180 Level FlightAware
12:43AM -31.9250 116.3050 220° Southwest 102 117 2,400 -180 Descending FlightAware
12:44AM -31.9320 116.2970 224° Southwest 103 119 2,400  Level FlightAware
12:44AM -31.9340 116.2960 203° Southwest 100 115 2,400  Level FlightAware
12:44AM -31.9380 116.2930 212° Southwest 91 105 2,400  Level FlightAware
12:44AM -31.9400 116.2910 220° Southwest 98 113 2,400  Level FlightAware
12:44AM -31.9490 116.2840 213° Southwest 89 102 2,400  Level FlightAware
12:45AM -31.9560 116.2770 220° Southwest 92 106 2,400  Level FlightAware
12:45AM -31.9640 116.2710 212° Southwest 96 110 2,400  Level FlightAware
12:45AM -31.9710 116.2640 220° Southwest 101 116 2,400  Level FlightAware
12:46AM -31.9790 116.2570 217° Southwest 103 119 2,400  Level FlightAware
12:46AM -31.9830 116.2540 212° Southwest 97 112 2,400 -240 Level FlightAware
12:46AM -31.9900 116.2480 216° Southwest 91 105 2,300 -180 Descending FlightAware
12:47AM -31.9970 116.2420 216° Southwest 91 105 2,300  Level FlightAware
12:47AM -31.9990 116.2410 203° Southwest 96 110 2,300 600 Level FlightAware
12:47AM -32.0010 116.2390 220° Southwest 96 110 2,400 180 Climbing FlightAware
12:47AM -32.0120 116.2330 205° Southwest 108 124 2,400  Level FlightAware
12:48AM -32.0220 116.2260 211° Southwest 103 119 2,400 120 Level FlightAware
12:48AM -32.0300 116.2210 208° Southwest 99 114 2,500  Climbing FlightAware
12:48AM -32.0350 116.2180 207° Southwest 99 114 2,400 -240 Descending FlightAware
12:48AM -32.0430 116.2120 212° Southwest 95 109 2,400  Level FlightAware
12:49AM -32.0490 116.2080 209° Southwest 98 113 2,400  Level FlightAware
12:49AM -32.0580 116.2030 205° Southwest 98 113 2,400  Level FlightAware
12:49AM -32.0650 116.1980 211° Southwest 91 105 2,400  Level FlightAware
12:50AM -32.0770 116.1910 206° Southwest 94 108 2,400  Level FlightAware
12:50AM -32.0870 116.1850 207° Southwest 96 110 2,400 -180 Level FlightAware
12:51AM -32.0950 116.1790 212° Southwest 92 106 2,300 -180 Descending FlightAware
12:51AM -32.1030 116.1740 208° Southwest 97 112 2,300  Level FlightAware
12:51AM -32.1050 116.1730 203° Southwest 92 106 2,300 -300 Level FlightAware
12:51AM -32.1100 116.1680 220° Southwest 91 105 2,200  Descending FlightAware
12:52AM -32.1180 116.1640 203° Southwest 90 104 2,300 240 Climbing FlightAware
12:52AM -32.1190 116.1620 239° Southwest 94 108 2,300  Level FlightAware
12:52AM -32.1290 116.1560 207° Southwest 93 107 2,300 120 Level FlightAware
12:52AM -32.1370 116.1520 203° Southwest 92 106 2,400 120 Climbing FlightAware
12:53AM -32.1450 116.1480 203° Southwest 89 102 2,400 -180 Level FlightAware
12:53AM -32.1530 116.1430 208° Southwest 89 102 2,300 120 Descending FlightAware
12:53AM -32.1211 116.1122 153° Southeast 1,700 480 Descending Aus ATC (Calculated)
12:53AM -32.1640 116.1380 208° Southwest 90 104 2,500 1,380 Climbing FlightAware
12:54AM -32.1700 116.1360 196° South 98 113 2,400  Descending FlightAware
12:54AM -32.1740 116.1340 203° Southwest 93 107 2,500  Climbing FlightAware
12:54AM -32.1760 116.1320 220° Southwest 94 108 2,400  Descending FlightAware
12:54AM -32.1780 116.1280 239° Southwest 91 105 2,500 600 Climbing FlightAware
12:54AM -32.1211 116.1122 175° South 1,500 600 Descending Aus ATC (Calculated)
12:54AM -32.1790 116.1180 239° Southwest 94 108 2,700 1,920 Climbing FlightAware
12:55AM -32.1790 116.1050 270° West 99 114 2,500 -540 Descending FlightAware
12:55AM -32.1780 116.0940 276° West 93 107 2,300 -360 Descending FlightAware
12:56AM -32.1780 116.0840 270° West 84 97 2,300  Level FlightAware
12:56AM -32.1770 116.0750 277° West 82 94 2,300  Level FlightAware
12:56AM -32.1760 116.0660 277° West 81 93 2,300 120 Level FlightAware
12:57AM -32.1760 116.0580 270° West 86 99 2,400 -240 Climbing FlightAware
12:57AM -32.1770 116.0420 266° West 101 116 2,100 -600 Descending FlightAware
12:57AM -32.1760 116.0300 276° West 104 120 1,900 -480 Descending FlightAware
12:58AM -32.1597 115.9306 101° East 1,500 -360 Descending Aus ATC (Calculated)
12:58AM -32.1740 116.0190 282° West 104 120 1,800 1,080 Climbing FlightAware
12:58AM -32.1730 116.0130 281° West 108 124 1,700 -480 Descending FlightAware
12:58AM -32.1710 116.0040 285° West 105 121 1,600 -540 Descending FlightAware
12:58AM -32.1710 115.9990 285° West 107 123 1,500 -300 Descending FlightAware
12:58AM -32.1700 115.9930 281° West 101 116 1,500 -240 Level FlightAware
12:59AM -32.1680 115.9830 283° West 90 104 1,400 -300 Descending FlightAware
12:59AM -32.1597 115.9306 101° East 100 -300 Descending Aus ATC (Calculated)
12:59AM -32.1670 115.9740 277° West 87 100 1,300 3,540 Climbing FlightAware
12:59AM -32.1286 115.9059 126° Southeast 100 300 Descending Aus ATC (Calculated)
12:59AM -32.1650 115.9650 277° West 80 92 1,400 3,000 Climbing FlightAware
01:00AM -32.1630 115.9560 277° West 79 91 1,400  Level FlightAware
01:00AM -32.1332 115.9075 129° Southeast 100  Descending Aus ATC (Calculated)
01:00AM -32.1600 115.9460 290° West 79 91 1,400 3,000 Climbing FlightAware
01:01AM -32.1560 115.9390 304° West 84 97 1,400  Level FlightAware
01:01AM -32.1510 115.9350 326° Northwest 87 100 1,400 180 Level FlightAware
01:01AM -32.1450 115.9300 326° Northwest 91 105 1,500 120 Climbing FlightAware
01:01AM -32.1370 115.9230 323° Northwest 103 119 1,500 -180 Level FlightAware
01:02AM -32.1290 115.9160 323° Northwest 109 125 1,400 -180 Descending FlightAware
01:02AM -32.1220 115.9080 316° Northwest 103 119 1,400  Level FlightAware
01:02AM -32.1150 115.9010 320° Northwest 96 110 1,400  Level FlightAware
01:03AM -32.1080 115.8940 320° Northwest 95 109 1,400 -240 Level FlightAware
01:03AM -32.0980 115.8810 312° West 98 113 1,200 -480 Descending FlightAware
01:04AM -32.0910 115.8730 316° Northwest 94 108 1,000 -420 Descending FlightAware
01:04AM -32.0820 115.8660 327° Northwest 96 110 900 -180 Descending FlightAware
01:04AM -32.0740 115.8740 40° Northeast 113 130 900 120 Level FlightAware
01:05AM -32.0710 115.8790 55° Northeast 110 127 1,000  Climbing FlightAware
01:05AM -32.0740 115.8920 105° East 76 87 900 -360 Descending FlightAware
01:05AM -32.0770 115.8970 125° Southeast 78 90 800 -420 Descending FlightAware